Time;durP1;ratioP1;P1;durP2;ratioP2;P2;SDS_P1;SDS_P2;PMS_P1;PMS_P2;Temp;Humidity;BMP_temperature;BMP_pressure;BME280_temperature;BME280_humidity;BME280_pressure;Samples;Min_cycle;Max_cycle;Signal;HPM_P1;HPM_P2
2022/10/12 00:01:42;;;;;;;;;;;;;;;14.25;100.00;98633.00;5079033;28;19963;-69
2022/10/12 00:04:09;;;;;;;;;;;;;;;14.21;100.00;98620.38;5077749;28;19924;-70
2022/10/12 00:06:35;;;;;;;;;;;;;;;14.02;100.00;98625.47;5075583;28;19931;-70
2022/10/12 00:09:02;;;;;;;;;;;;;;;13.98;100.00;98614.47;5075526;28;19928;-70
2022/10/12 00:11:29;;;;;;;;;;;;;;;13.90;100.00;98617.66;5078813;28;19959;-70
2022/10/12 00:13:56;;;;;;;;;;;;;;;13.86;100.00;98627.34;5078974;28;19987;-70
2022/10/12 00:16:23;;;;;;;;;;;;;;;13.91;100.00;98624.66;5074557;28;19980;-70
2022/10/12 00:18:51;;;;;;;;;;;;;;;13.95;100.00;98622.25;5076066;28;19971;-70
2022/10/12 00:21:17;;;;;;;;;;;;;;;13.85;100.00;98627.59;5078574;28;19947;-70
2022/10/12 00:23:44;;;;;;;;;;;;;;;13.89;100.00;98616.09;5078138;28;19999;-70
2022/10/12 00:26:12;;;;;;;;;;;;;;;13.94;100.00;98624.13;5077549;28;19996;-70
2022/10/12 00:28:38;;;;;;;;;;;;;;;13.93;100.00;98627.88;5075534;28;19925;-70
2022/10/12 00:31:08;;;;;;;;;;;;;;;13.99;100.00;98626.81;5074712;28;19964;-70
2022/10/12 00:33:36;;;;;;;;;;;;;;;13.95;100.00;98630.31;5078428;28;19992;-68
2022/10/12 00:36:10;;;;;;;;;;;;;;;13.92;100.00;98626.28;5078271;28;19924;-70
2022/10/12 00:38:36;;;;;;;;;;;;;;;13.87;100.00;98625.44;5074024;28;19988;-70
2022/10/12 00:41:03;;;;;;;;;;;;;;;13.84;100.00;98618.75;5075284;28;19932;-70
2022/10/12 00:43:30;;;;;;;;;;;;;;;13.92;100.00;98615.53;5078393;28;19984;-70
2022/10/12 00:45:57;;;;;;;;;;;;;;;13.95;100.00;98620.38;5077233;28;20385;-70
2022/10/12 00:48:25;;;;;;;;;;;;;;;13.96;100.00;98619.28;5090658;28;19951;-70
2022/10/12 00:50:52;;;;;;;;;;;;;;;13.89;100.00;98621.44;5074874;28;20024;-70
2022/10/12 00:53:21;;;;;;;;;;;;;;;13.96;100.00;98624.66;5077021;28;19925;-70
2022/10/12 00:55:49;;;;;;;;;;;;;;;14.00;100.00;98614.19;5078065;28;19930;-70
2022/10/12 00:58:16;;;;;;;;;;;;;;;14.05;100.00;98619.56;5076064;28;19987;-70
2022/10/12 01:00:42;;;;;;;;;;;;;;;14.11;100.00;98618.50;5074313;28;19988;-70
2022/10/12 01:03:11;;;;;;;;;;;;;;;14.08;100.00;98611.78;5075707;28;19980;-70
2022/10/12 01:05:39;;;;;;;;;;;;;;;14.13;100.00;98619.03;5077686;28;20115;-69
2022/10/12 01:08:06;;;;;;;;;;;;;;;14.10;100.00;98614.22;5077494;28;20000;-70
2022/10/12 01:10:32;;;;;;;;;;;;;;;14.07;100.00;98607.50;5073179;28;19992;-70
2022/10/12 01:12:59;;;;;;;;;;;;;;;14.06;100.00;98611.25;5073214;28;19948;-70
2022/10/12 01:15:29;;;;;;;;;;;;;;;14.07;100.00;98606.69;5077418;28;19992;-70
2022/10/12 01:18:00;;;;;;;;;;;;;;;14.13;100.00;98605.59;5077675;28;19991;-70
2022/10/12 01:20:37;;;;;;;;;;;;;;;14.16;100.00;98601.56;5066039;28;19963;-70
2022/10/12 01:23:13;;;;;;;;;;;;;;;14.14;100.00;98603.72;5074634;28;19924;-70
2022/10/12 01:25:49;;;;;;;;;;;;;;;13.99;100.00;98602.63;5077463;28;20011;-70
2022/10/12 01:28:19;;;;;;;;;;;;;;;13.87;100.00;98602.09;5075468;28;19924;-70
2022/10/12 01:30:48;;;;;;;;;;;;;;;13.98;100.00;98606.41;5073950;28;20159;-70
2022/10/12 01:33:19;;;;;;;;;;;;;;;14.03;100.00;98616.34;5074664;28;19995;-70
2022/10/12 01:35:49;;;;;;;;;;;;;;;14.06;100.00;98599.69;5077383;28;19925;-70
2022/10/12 01:38:20;;;;;;;;;;;;;;;14.11;100.00;98597.03;5076194;28;19924;-69
2022/10/12 01:40:50;;;;;;;;;;;;;;;14.14;100.00;98601.06;5074463;28;19936;-69
2022/10/12 01:43:17;;;;;;;;;;;;;;;14.18;100.00;98599.41;5076258;28;19960;-70
2022/10/12 01:45:43;;;;;;;;;;;;;;;14.16;100.00;98593.50;5077670;28;19964;-70
2022/10/12 01:48:11;;;;;;;;;;;;;;;14.15;100.00;98595.41;5076268;28;19925;-69
2022/10/12 01:50:45;;;;;;;;;;;;;;;14.05;100.00;98592.69;5073561;28;19925;-69
2022/10/12 01:53:16;;;;;;;;;;;;;;;13.97;100.00;98588.69;5075087;28;20008;-69
2022/10/12 01:55:46;;;;;;;;;;;;;;;13.93;100.00;98597.53;5077122;28;19924;-70
2022/10/12 01:58:26;;;;;;;;;;;;;;;13.97;100.00;98604.81;5075214;28;20019;-69
2022/10/12 02:00:55;;;;;;;;;;;;;;;14.04;100.00;98602.66;5071947;28;19960;-69
2022/10/12 02:03:27;;;;;;;;;;;;;;;14.09;100.00;98593.78;5076335;28;19986;-69
2022/10/12 02:05:57;;;;;;;;;;;;;;;14.12;100.00;98597.81;5076865;28;19991;-70
2022/10/12 02:08:24;;;;;;;;;;;;;;;13.99;100.00;98591.09;5073761;28;19971;-70
2022/10/12 02:10:54;;;;;;;;;;;;;;;13.94;100.00;98581.16;5073425;28;19983;-70
2022/10/12 02:13:22;;;;;;;;;;;;;;;13.94;100.00;98586.53;5076126;28;19996;-69
2022/10/12 02:15:48;;;;;;;;;;;;;;;13.96;100.00;98588.94;5077078;28;19924;-69
2022/10/12 02:18:17;;;;;;;;;;;;;;;13.81;100.00;98591.63;5074893;28;19928;-69
2022/10/12 02:20:45;;;;;;;;;;;;;;;13.82;100.00;98588.69;5073292;28;19945;-69
2022/10/12 02:23:12;;;;;;;;;;;;;;;13.87;100.00;98586.00;5074979;28;19980;-69
2022/10/12 02:25:39;;;;;;;;;;;;;;;13.85;100.00;98579.28;5075765;28;19924;-69
2022/10/12 02:28:08;;;;;;;;;;;;;;;13.77;100.00;98580.59;5076184;28;19925;-69
2022/10/12 02:30:37;;;;;;;;;;;;;;;13.68;100.00;98571.47;5073602;28;19925;-69
2022/10/12 02:33:06;;;;;;;;;;;;;;;13.71;100.00;98576.31;5073750;28;19984;-69
2022/10/12 02:35:37;;;;;;;;;;;;;;;13.80;100.00;98579.28;5076873;28;19989;-69
2022/10/12 02:38:08;;;;;;;;;;;;;;;13.86;100.00;98570.97;5076553;28;19931;-69
2022/10/12 02:40:38;;;;;;;;;;;;;;;13.94;100.00;98572.31;5072310;28;20511;-68
2022/10/12 02:43:06;;;;;;;;;;;;;;;14.01;100.00;98576.34;5074126;28;20036;-69
2022/10/12 02:45:34;;;;;;;;;;;;;;;14.11;100.00;98563.97;5077111;28;19992;-69
2022/10/12 02:48:01;;;;;;;;;;;;;;;14.16;100.00;98561.28;5076615;28;20188;-69
2022/10/12 02:50:27;;;;;;;;;;;;;;;14.19;100.00;98556.19;5065187;28;19936;-69
2022/10/12 02:52:54;;;;;;;;;;;;;;;14.15;100.00;98560.47;5073346;28;20501;-69
2022/10/12 02:55:22;;;;;;;;;;;;;;;14.17;100.00;98571.78;5076521;28;19924;-70
2022/10/12 02:57:48;;;;;;;;;;;;;;;14.14;100.00;98574.19;5092564;28;19924;-70
2022/10/12 03:00:15;;;;;;;;;;;;;;;14.16;100.00;98575.53;5075732;28;19931;-69
2022/10/12 03:02:42;;;;;;;;;;;;;;;14.19;100.00;98563.44;5075886;28;19925;-70
2022/10/12 03:05:08;;;;;;;;;;;;;;;14.16;100.00;98561.28;5078227;28;19967;-70
2022/10/12 03:07:34;;;;;;;;;;;;;;;14.12;100.00;98566.38;5080431;28;19925;-70
2022/10/12 03:10:01;;;;;;;;;;;;;;;14.06;100.00;98567.47;5080420;28;20018;-70
2022/10/12 03:12:28;;;;;;;;;;;;;;;14.00;100.00;98563.97;5068481;28;19987;-70
2022/10/12 03:14:55;;;;;;;;;;;;;;;14.05;100.00;98576.59;5076514;28;19984;-70
2022/10/12 03:17:21;;;;;;;;;;;;;;;14.09;100.00;98574.97;5079425;28;20807;-70
2022/10/12 03:19:49;;;;;;;;;;;;;;;14.11;100.00;98577.41;5079314;28;21343;-70
2022/10/12 03:22:16;;;;;;;;;;;;;;;14.10;100.00;98571.22;5077997;28;20023;-70
2022/10/12 03:24:42;;;;;;;;;;;;;;;14.10;100.00;98565.06;5076338;28;19925;-70
2022/10/12 03:27:08;;;;;;;;;;;;;;;14.08;100.00;98574.16;5077298;28;19925;-70
2022/10/12 03:29:36;;;;;;;;;;;;;;;14.14;100.00;98571.50;5079926;28;20365;-70
2022/10/12 03:32:02;;;;;;;;;;;;;;;14.11;100.00;98570.16;5079450;28;19995;-70
2022/10/12 03:34:28;;;;;;;;;;;;;;;14.10;100.00;98568.53;5076555;28;19963;-70
2022/10/12 03:36:55;;;;;;;;;;;;;;;14.14;100.00;98579.56;5076378;28;20668;-70
2022/10/12 03:39:21;;;;;;;;;;;;;;;14.15;100.00;98568.53;5078938;28;19929;-70
2022/10/12 03:41:47;;;;;;;;;;;;;;;14.15;100.00;98578.47;5079562;28;19924;-70
2022/10/12 03:44:14;;;;;;;;;;;;;;;14.16;100.00;98572.03;5078015;28;19958;-69
2022/10/12 03:46:41;;;;;;;;;;;;;;;14.14;100.00;98579.56;5076419;28;19952;-69
2022/10/12 03:49:08;;;;;;;;;;;;;;;14.13;100.00;98580.63;5076877;28;19992;-70
2022/10/12 03:51:34;;;;;;;;;;;;;;;14.16;100.00;98582.78;5078213;28;19956;-70
2022/10/12 03:54:01;;;;;;;;;;;;;;;14.06;100.00;98579.03;5079312;28;19968;-70
2022/10/12 03:56:27;;;;;;;;;;;;;;;14.01;100.00;98581.72;5068033;28;19955;-70
2022/10/12 03:58:53;;;;;;;;;;;;;;;14.03;100.00;98579.56;5075017;28;20790;-71
2022/10/12 04:01:20;;;;;;;;;;;;;;;14.04;100.00;98586.56;5078995;28;19980;-69
2022/10/12 04:03:47;;;;;;;;;;;;;;;14.01;100.00;98581.72;5079899;28;19983;-69
2022/10/12 04:06:14;;;;;;;;;;;;;;;14.01;100.00;98578.22;5077970;28;19925;-70
2022/10/12 04:08:41;;;;;;;;;;;;;;;13.96;100.00;98583.56;5076569;28;19927;-70
2022/10/12 04:11:07;;;;;;;;;;;;;;;13.96;100.00;98572.81;5077311;28;20297;-69
2022/10/12 04:13:33;;;;;;;;;;;;;;;13.90;100.00;98572.03;5079735;28;20026;-69
2022/10/12 04:16:01;;;;;;;;;;;;;;;13.84;100.00;98569.59;5080068;28;19967;-69
2022/10/12 04:18:27;;;;;;;;;;;;;;;13.69;100.00;98573.09;5068414;28;19924;-69
2022/10/12 04:20:55;;;;;;;;;;;;;;;13.74;100.00;98570.41;5075864;28;19925;-70
2022/10/12 04:23:22;;;;;;;;;;;;;;;13.83;100.00;98576.84;5079134;28;19928;-69
2022/10/12 04:25:48;;;;;;;;;;;;;;;13.88;100.00;98574.19;5080008;28;19931;-70
2022/10/12 04:28:14;;;;;;;;;;;;;;;13.89;100.00;98580.38;5077773;28;19931;-69
2022/10/12 04:30:41;;;;;;;;;;;;;;;13.89;100.00;98583.84;5075957;28;19924;-70
2022/10/12 04:33:07;;;;;;;;;;;;;;;13.93;100.00;98584.91;5077067;28;19956;-70
2022/10/12 04:35:34;;;;;;;;;;;;;;;13.87;100.00;98586.00;5079033;28;19966;-70
2022/10/12 04:38:01;;;;;;;;;;;;;;;13.87;100.00;98583.31;5079301;28;19932;-70
2022/10/12 04:40:28;;;;;;;;;;;;;;;13.89;100.00;98583.84;5067329;28;20004;-70
2022/10/12 04:42:55;;;;;;;;;;;;;;;13.92;100.00;98583.31;5075343;28;19952;-70
2022/10/12 04:45:21;;;;;;;;;;;;;;;13.95;100.00;98574.72;5078080;28;19929;-70
2022/10/12 04:47:47;;;;;;;;;;;;;;;13.97;100.00;98583.31;5078727;28;19992;-70
2022/10/12 04:50:14;;;;;;;;;;;;;;;13.95;100.00;98584.66;5076812;28;19932;-70
2022/10/12 04:52:41;;;;;;;;;;;;;;;13.89;100.00;98580.38;5075222;28;19925;-70
2022/10/12 04:55:09;;;;;;;;;;;;;;;13.93;100.00;98584.91;5075768;28;19952;-69
2022/10/12 04:57:35;;;;;;;;;;;;;;;13.88;100.00;98579.56;5077934;28;19931;-69
2022/10/12 05:00:02;;;;;;;;;;;;;;;13.83;100.00;98578.75;5078545;28;19954;-70
2022/10/12 05:02:28;;;;;;;;;;;;;;;13.85;100.00;98588.16;5074661;28;19982;-70
2022/10/12 05:04:54;;;;;;;;;;;;;;;13.86;100.00;98584.41;5074797;28;19952;-70
2022/10/12 05:07:21;;;;;;;;;;;;;;;13.90;100.00;98592.69;5076144;28;19952;-70
2022/10/12 05:09:47;;;;;;;;;;;;;;;13.85;100.00;98588.16;5078086;28;19960;-70
2022/10/12 05:12:15;;;;;;;;;;;;;;;13.75;100.00;98592.69;5076438;28;20028;-70
2022/10/12 05:14:43;;;;;;;;;;;;;;;13.77;100.00;98591.34;5074648;28;19935;-70
2022/10/12 05:17:09;;;;;;;;;;;;;;;13.73;100.00;98590.28;5075352;28;19932;-70
2022/10/12 05:19:35;;;;;;;;;;;;;;;13.68;100.00;98590.25;5077713;28;19925;-70
2022/10/12 05:22:02;;;;;;;;;;;;;;;13.73;100.00;98590.28;5093114;28;20015;-70
2022/10/12 05:24:28;;;;;;;;;;;;;;;13.76;100.00;98595.13;5065978;28;20099;-70
2022/10/12 05:26:55;;;;;;;;;;;;;;;13.71;100.00;98588.94;5074527;28;19935;-69
2022/10/12 05:29:23;;;;;;;;;;;;;;;13.70;100.00;98600.75;5077027;28;19990;-70
2022/10/12 05:31:49;;;;;;;;;;;;;;;13.75;100.00;98604.22;5077784;28;19959;-70
2022/10/12 05:34:15;;;;;;;;;;;;;;;13.80;100.00;98608.81;5075709;28;19924;-70
2022/10/12 05:36:42;;;;;;;;;;;;;;;13.69;100.00;98594.56;5075173;28;19936;-69
2022/10/12 05:39:08;;;;;;;;;;;;;;;13.33;100.00;98598.25;5075901;28;20011;-70
2022/10/12 05:41:35;;;;;;;;;;;;;;;13.17;100.00;98608.09;5078553;28;19924;-69
2022/10/12 05:44:01;;;;;;;;;;;;;;;13.31;100.00;98613.78;5078589;28;19956;-69
2022/10/12 05:46:29;;;;;;;;;;;;;;;13.40;100.00;98601.50;5066966;28;19960;-70
2022/10/12 05:48:55;;;;;;;;;;;;;;;13.46;100.00;98611.16;5074956;28;19929;-68
2022/10/12 05:51:21;;;;;;;;;;;;;;;13.57;100.00;98607.44;5077873;28;19928;-70
2022/10/12 05:53:48;;;;;;;;;;;;;;;13.63;100.00;98616.28;5078251;28;19967;-70
2022/10/12 05:56:14;;;;;;;;;;;;;;;13.65;100.00;98606.09;5076618;28;20483;-70
2022/10/12 05:58:41;;;;;;;;;;;;;;;13.63;100.00;98611.72;5073756;28;19936;-70
2022/10/12 06:01:08;;;;;;;;;;;;;;;13.51;100.00;98611.97;5074966;28;20031;-70
2022/10/12 06:03:35;;;;;;;;;;;;;;;13.53;100.00;98617.06;5076131;28;19925;-70
2022/10/12 06:06:02;;;;;;;;;;;;;;;13.53;100.00;98606.34;5077405;28;19991;-70
2022/10/12 06:08:29;;;;;;;;;;;;;;;13.60;100.00;98617.63;5074078;28;19991;-70
2022/10/12 06:10:55;;;;;;;;;;;;;;;13.52;100.00;98620.84;5074072;28;19992;-68
2022/10/12 06:13:22;;;;;;;;;;;;;;;13.51;100.00;98617.34;5076404;28;19931;-69
2022/10/12 06:15:49;;;;;;;;;;;;;;;13.42;100.00;98618.13;5077616;28;19950;-69
2022/10/12 06:18:16;;;;;;;;;;;;;;;13.45;100.00;98620.28;5076102;28;19966;-70
2022/10/12 06:20:47;;;;;;;;;;;;;;;13.50;100.00;98614.91;5074479;28;20093;-70
2022/10/12 06:23:14;;;;;;;;;;;;;;;13.58;100.00;98621.66;5076031;28;19932;-70
2022/10/12 06:25:40;;;;;;;;;;;;;;;13.67;100.00;98626.25;5077782;28;19924;-70
2022/10/12 06:28:06;;;;;;;;;;;;;;;13.73;100.00;98624.38;5076945;28;19924;-69
2022/10/12 06:30:33;;;;;;;;;;;;;;;13.78;100.00;98616.31;5074286;28;19955;-69
2022/10/12 06:32:59;;;;;;;;;;;;;;;13.69;100.00;98626.78;5073845;28;19925;-69
2022/10/12 06:35:25;;;;;;;;;;;;;;;13.59;100.00;98620.56;5078235;28;19925;-70
2022/10/12 06:37:53;;;;;;;;;;;;;;;13.65;100.00;98627.59;5081829;28;19924;-69
2022/10/12 06:40:20;;;;;;;;;;;;;;;13.68;100.00;98619.00;5079239;28;19988;-70
2022/10/12 06:42:48;;;;;;;;;;;;;;;13.72;100.00;98623.56;5078002;28;19925;-70
2022/10/12 06:45:14;;;;;;;;;;;;;;;13.65;100.00;98624.91;5079547;28;19931;-70
2022/10/12 06:47:40;;;;;;;;;;;;;;;13.61;100.00;98629.19;5081327;28;19924;-70
2022/10/12 06:50:07;;;;;;;;;;;;;;;13.61;100.00;98627.31;5080283;28;19979;-69
2022/10/12 06:52:34;;;;;;;;;;;;;;;13.69;100.00;98624.09;5082253;28;19934;-71
2022/10/12 06:55:02;;;;;;;;;;;;;;;13.79;100.00;98628.66;5080824;28;19994;-70
2022/10/12 06:57:28;;;;;;;;;;;;;;;13.69;100.00;98621.41;5069136;28;19931;-70
2022/10/12 06:59:54;;;;;;;;;;;;;;;13.68;100.00;98625.16;5077409;28;19963;-70
2022/10/12 07:02:21;;;;;;;;;;;;;;;13.68;100.00;98629.75;5078276;28;19924;-70
2022/10/12 07:04:49;;;;;;;;;;;;;;;13.77;100.00;98628.94;5080300;28;19933;-70
2022/10/12 07:07:15;;;;;;;;;;;;;;;13.81;100.00;98640.75;5078587;28;19980;-70
2022/10/12 07:09:41;;;;;;;;;;;;;;;13.96;100.00;98643.47;5076898;28;19935;-70
2022/10/12 07:12:09;;;;;;;;;;;;;;;14.00;100.00;98643.72;5077549;28;20475;-70
2022/10/12 07:14:35;;;;;;;;;;;;;;;13.87;100.00;98645.06;5080103;28;19991;-70
2022/10/12 07:17:02;;;;;;;;;;;;;;;13.87;100.00;98646.94;5080273;28;19987;-69
2022/10/12 07:19:28;;;;;;;;;;;;;;;13.89;100.00;98644.81;5068290;28;20116;-71
2022/10/12 07:21:54;;;;;;;;;;;;;;;13.99;100.00;98640.25;5075726;28;20480;-70
2022/10/12 07:24:21;;;;;;;;;;;;;;;14.05;100.00;98636.47;5078993;28;20020;-70
2022/10/12 07:26:47;;;;;;;;;;;;;;;13.98;100.00;98646.69;5081028;28;20366;-70
2022/10/12 07:29:14;;;;;;;;;;;;;;;13.94;100.00;98650.97;5079461;28;20204;-70
2022/10/12 07:31:41;;;;;;;;;;;;;;;13.98;100.00;98649.38;5077154;28;19924;-70
2022/10/12 07:34:08;;;;;;;;;;;;;;;13.96;100.00;98648.00;5077917;28;19936;-70
2022/10/12 07:36:34;;;;;;;;;;;;;;;13.96;100.00;98651.50;5080519;28;19988;-70
2022/10/12 07:39:00;;;;;;;;;;;;;;;13.84;100.00;98652.84;5096551;28;19956;-70
2022/10/12 07:41:27;;;;;;;;;;;;;;;13.78;100.00;98651.22;5076650;28;19925;-70
2022/10/12 07:43:54;;;;;;;;;;;;;;;13.73;100.00;98646.66;5076579;28;19967;-70
2022/10/12 07:46:22;;;;;;;;;;;;;;;13.70;100.00;98649.06;5078931;28;19924;-71
2022/10/12 07:48:48;;;;;;;;;;;;;;;13.68;100.00;98652.00;5079338;28;19978;-69
2022/10/12 07:51:14;;;;;;;;;;;;;;;13.69;100.00;98645.56;5077770;28;19992;-70
2022/10/12 07:53:41;;;;;;;;;;;;;;;13.77;100.00;98646.94;5076255;28;19979;-70
2022/10/12 07:56:13;;;;;;;;;;;;;;;13.86;100.00;98648.84;5077270;28;19958;-70
2022/10/12 07:58:40;;;;;;;;;;;;;;;13.90;100.00;98647.22;5080170;28;19971;-70
2022/10/12 08:01:07;;;;;;;;;;;;;;;13.92;100.00;98642.41;5079136;28;19962;-71
2022/10/12 08:03:35;;;;;;;;;;;;;;;13.85;100.00;98651.78;5075781;28;19975;-69
2022/10/12 08:06:07;;;;;;;;;;;;;;;13.90;100.00;98649.91;5075836;28;19925;-70
2022/10/12 08:08:34;;;;;;;;;;;;;;;13.91;100.00;98650.72;5069025;28;19963;-70
2022/10/12 08:11:00;;;;;;;;;;;;;;;13.90;100.00;98646.41;5075598;28;19953;-70
2022/10/12 08:13:26;;;;;;;;;;;;;;;13.93;100.00;98649.38;5079680;28;19988;-69
2022/10/12 08:15:53;;;;;;;;;;;;;;;14.01;100.00;98651.53;5079435;28;19924;-69
2022/10/12 08:18:19;;;;;;;;;;;;;;;14.06;100.00;98645.34;5076910;28;19935;-69
2022/10/12 08:20:47;;;;;;;;;;;;;;;14.10;100.00;98643.75;5075993;28;19992;-69
2022/10/12 08:23:13;;;;;;;;;;;;;;;14.09;100.00;98642.13;5083651;28;20026;-69
2022/10/12 08:25:40;;;;;;;;;;;;;;;14.19;100.00;98641.34;5075448;28;19992;-70
2022/10/12 08:28:06;;;;;;;;;;;;;;;14.20;100.00;98645.66;5075967;28;19992;-69
2022/10/12 08:30:33;;;;;;;;;;;;;;;14.22;100.00;98648.84;5094287;28;20034;-70
2022/10/12 08:32:59;;;;;;;;;;;;;;;14.28;100.00;98643.22;5079397;28;19924;-70
2022/10/12 08:35:26;;;;;;;;;;;;;;;14.26;100.00;98648.06;5075938;28;19925;-69
2022/10/12 08:37:53;;;;;;;;;;;;;;;14.34;100.00;98641.38;5074375;28;19932;-69
2022/10/12 08:40:25;;;;;;;;;;;;;;;14.22;100.00;98646.97;5077846;28;20012;-69
2022/10/12 08:42:56;;;;;;;;;;;;;;;14.13;100.00;98645.09;5078987;28;19962;-70
2022/10/12 08:45:27;;;;;;;;;;;;;;;14.19;100.00;98639.47;5075951;28;19996;-68
2022/10/12 08:47:57;;;;;;;;;;;;;;;14.28;100.00;98643.22;5090874;28;19990;-70
2022/10/12 08:50:26;;;;;;;;;;;;;;;14.31;100.00;98639.19;5077995;28;19962;-71
2022/10/12 08:52:55;;;;;;;;;;;;;;;14.42;100.00;98636.25;5078371;28;19928;-70
2022/10/12 08:55:26;;;;;;;;;;;;;;;14.42;100.00;98635.47;5076099;28;20001;-70
2022/10/12 08:57:52;;;;;;;;;;;;;;;14.48;100.00;98645.13;5075460;28;19924;-70
2022/10/12 09:00:19;;;;;;;;;;;;;;;14.33;100.00;98647.81;5076227;28;19932;-70
2022/10/12 09:02:50;;;;;;;;;;;;;;;14.45;100.00;98634.94;5078483;28;19956;-70
2022/10/12 09:05:18;;;;;;;;;;;;;;;14.59;100.00;98638.66;5076511;28;19921;-70
2022/10/12 09:07:47;;;;;;;;;;;;;;;14.65;100.00;98636.75;5073580;28;19964;-72
2022/10/12 09:10:25;;;;;;;;;;;;;;;14.64;100.00;98637.88;5076322;28;19992;-71
2022/10/12 09:12:58;;;;;;;;;;;;;;;14.78;100.00;98628.13;5078266;28;19928;-72
2022/10/12 09:15:28;;;;;;;;;;;;;;;14.83;100.00;98633.50;5074953;28;19998;-72
2022/10/12 09:17:56;;;;;;;;;;;;;;;14.88;100.00;98642.38;5074393;28;20186;-72
2022/10/12 09:20:26;;;;;;;;;;;;;;;14.85;100.00;98626.78;5077621;28;19925;-72
2022/10/12 09:22:55;;;;;;;;;;;;;;;14.81;100.00;98632.97;5076987;28;19995;-72
2022/10/12 09:25:24;;;;;;;;;;;;;;;14.81;100.00;98638.34;5090881;28;19925;-72
2022/10/12 09:27:51;;;;;;;;;;;;;;;14.96;100.00;98625.69;5074189;28;19984;-72
2022/10/12 09:30:18;;;;;;;;;;;;;;;14.89;100.00;98630.53;5074930;28;19961;-72
2022/10/12 09:33:03;;;;;;;;;;;;;;;14.97;100.00;98632.69;5077641;28;19963;-72
2022/10/12 09:35:29;;;;;;;;;;;;;;;15.03;100.00;98634.28;5066291;28;19947;-71
2022/10/12 09:37:56;;;;;;;;;;;;;;;15.11;100.00;98628.31;5074681;28;19956;-72
2022/10/12 09:40:25;;;;;;;;;;;;;;;15.28;100.00;98627.19;5077632;28;19960;-71
2022/10/12 09:42:52;;;;;;;;;;;;;;;15.37;100.00;98631.72;5078166;28;19947;-70
2022/10/12 09:45:19;;;;;;;;;;;;;;;15.29;100.00;98629.59;5075960;28;19924;-71
2022/10/12 09:48:01;;;;;;;;;;;;;;;15.26;100.00;98627.44;5074651;28;19925;-71
2022/10/12 09:50:39;;;;;;;;;;;;;;;15.43;100.00;98627.09;5079315;28;19979;-71
2022/10/12 09:53:12;;;;;;;;;;;;;;;15.24;100.00;98626.91;5076690;28;19924;-71
2022/10/12 09:55:40;;;;;;;;;;;;;;;15.27;100.00;98628.25;5073619;28;20247;-71
2022/10/12 09:58:17;;;;;;;;;;;;;;;15.49;100.00;98626.03;5075000;28;19988;-71
2022/10/12 10:00:44;;;;;;;;;;;;;;;15.51;100.00;98629.25;5077994;28;19980;-71
2022/10/12 10:03:22;;;;;;;;;;;;;;;15.56;100.00;98630.03;5076455;28;20345;-71
2022/10/12 10:06:01;;;;;;;;;;;;;;;15.61;100.00;98637.28;5074557;28;19929;-70
2022/10/12 10:08:28;;;;;;;;;;;;;;;15.57;100.00;98631.63;5065560;28;19939;-70
2022/10/12 10:10:56;;;;;;;;;;;;;;;15.79;100.00;98628.53;5073500;28;19925;-70
2022/10/12 10:13:25;;;;;;;;;;;;;;;15.83;100.00;98635.00;5076742;28;20354;-70
2022/10/12 10:16:01;;;;;;;;;;;;;;;15.93;100.00;98628.75;5076952;28;19935;-70
2022/10/12 10:18:33;;;;;;;;;;;;;;;15.92;100.00;98624.44;5073788;28;19924;-70
2022/10/12 10:21:00;;;;;;;;;;;;;;;15.95;100.00;98631.94;5073402;28;19984;-70
2022/10/12 10:23:28;;;;;;;;;;;;;;;16.07;100.00;98629.69;5081906;28;20138;-71
2022/10/12 10:25:58;;;;;;;;;;;;;;;15.82;100.00;98633.38;5073500;28;19932;-71
2022/10/12 10:28:27;;;;;;;;;;;;;;;15.96;100.00;98622.78;5075019;28;19980;-70
2022/10/12 10:30:59;;;;;;;;;;;;;;;15.84;100.00;98623.16;5077097;28;20372;-69
2022/10/12 10:33:25;;;;;;;;;;;;;;;15.90;100.00;98624.72;5073987;28;19924;-69
2022/10/12 10:35:54;;;;;;;;;;;;;;;16.10;100.00;98613.78;5073197;28;19932;-69
2022/10/12 10:38:20;;;;;;;;;;;;;;;16.13;100.00;98618.59;5075793;28;20480;-69
2022/10/12 10:40:50;;;;;;;;;;;;;;;16.14;100.00;98625.63;5076611;28;20011;-70
2022/10/12 10:43:20;;;;;;;;;;;;;;;16.19;100.00;98611.28;5074933;28;19935;-70
2022/10/12 10:45:49;;;;;;;;;;;;;;;16.18;100.00;98610.47;5073105;28;19940;-70
2022/10/12 10:48:16;;;;;;;;;;;;;;;16.12;100.00;98611.59;5073639;28;19987;-71
2022/10/12 10:50:49;;;;;;;;;;;;;;;16.09;100.00;98612.16;5076668;28;19971;-71
2022/10/12 10:53:19;;;;;;;;;;;;;;;16.14;100.00;98606.75;5074821;28;19925;-70
2022/10/12 10:55:47;;;;;;;;;;;;;;;16.14;100.00;98603.25;5072887;28;20653;-70
2022/10/12 10:58:19;;;;;;;;;;;;;;;16.19;100.00;98606.69;5074640;28;19966;-70
2022/10/12 11:00:48;;;;;;;;;;;;;;;16.34;100.00;98602.28;5077208;28;19933;-70
2022/10/12 11:03:20;;;;;;;;;;;;;;;16.31;100.00;98600.94;5090695;28;20027;-70
2022/10/12 11:05:49;;;;;;;;;;;;;;;16.36;100.00;98600.91;5073493;28;19925;-69
2022/10/12 11:08:17;;;;;;;;;;;;;;;16.35;100.00;98601.19;5075024;28;19932;-70
2022/10/12 11:10:46;;;;;;;;;;;;;;;16.46;100.00;98598.13;5076641;28;19932;-70
2022/10/12 11:13:15;;;;;;;;;;;;;;;16.54;100.00;98604.78;5090705;28;19935;-72
2022/10/12 11:15:44;;;;;;;;;;;;;;;16.57;100.00;98596.16;5072821;28;19925;-69
2022/10/12 11:18:16;;;;;;;;;;;;;;;16.48;100.00;98597.81;5074046;28;20247;-71
2022/10/12 11:20:50;;;;;;;;;;;;;;;16.64;100.00;98597.44;5076674;28;19924;-71
2022/10/12 11:23:24;;;;;;;;;;;;;;;16.65;100.00;98587.44;5076727;28;19955;-70
2022/10/12 11:26:20;;;;;;;;;;;;;;;16.57;100.00;98585.38;5076419;28;19970;-70
2022/10/12 11:28:47;;;;;;;;;;;;;;;16.65;100.00;98584.72;5048254;28;19936;-71
2022/10/12 11:31:17;;;;;;;;;;;;;;;16.59;100.00;98581.28;5072646;28;20323;-70
2022/10/12 11:33:46;;;;;;;;;;;;;;;16.67;100.00;98577.19;5079931;28;19932;-70
2022/10/12 11:36:14;;;;;;;;;;;;;;;16.77;100.00;98590.56;5078644;28;19924;-71
2022/10/12 11:38:42;;;;;;;;;;;;;;;16.62;100.00;98577.22;5076295;28;19924;-70
2022/10/12 11:41:11;;;;;;;;;;;;;;;16.82;100.00;98582.41;5077131;28;19960;-70
2022/10/12 11:43:41;;;;;;;;;;;;;;;16.72;100.00;98571.72;5079606;28;19959;-71
2022/10/12 11:46:12;;;;;;;;;;;;;;;16.91;100.00;98563.69;5078705;28;19936;-70
2022/10/12 11:48:41;;;;;;;;;;;;;;;16.96;100.00;98567.13;5076176;28;19924;-71
2022/10/12 11:51:11;;;;;;;;;;;;;;;17.05;100.00;98572.69;5076769;28;19925;-71
2022/10/12 11:53:41;;;;;;;;;;;;;;;17.04;100.00;98563.81;5082985;28;19924;-70
2022/10/12 11:56:11;;;;;;;;;;;;;;;17.01;100.00;98571.66;5076507;28;19935;-70
2022/10/12 11:58:39;;;;;;;;;;;;;;;16.93;100.00;98561.53;5079322;28;19935;-70
2022/10/12 12:01:12;;;;;;;;;;;;;;;16.95;100.00;98565.53;5078899;28;20331;-71
2022/10/12 12:04:00;;;;;;;;;;;;;;;17.17;100.00;98562.28;5075829;28;20140;-71
2022/10/12 12:06:47;;;;;;;;;;;;;;;17.07;100.00;98557.81;5078720;28;19925;-71
2022/10/12 12:09:22;;;;;;;;;;;;;;;17.30;100.00;98555.38;5093188;28;20015;-71
2022/10/12 12:11:48;;;;;;;;;;;;;;;17.50;100.00;98550.50;5074236;28;19972;-71
2022/10/12 12:14:42;;;;;;;;;;;;;;;17.51;100.00;98552.09;5077212;28;19967;-71
2022/10/12 12:17:14;;;;;;;;;;;;;;;17.44;100.00;98558.94;5041858;28;19924;-71
2022/10/12 12:19:41;;;;;;;;;;;;;;;17.21;100.00;98545.22;5091453;28;19959;-71
2022/10/12 12:22:17;;;;;;;;;;;;;;;17.30;100.00;98548.06;5076179;28;19975;-70
2022/10/12 12:24:51;;;;;;;;;;;;;;;17.40;100.00;98545.22;5078552;28;19993;-71
2022/10/12 12:27:22;;;;;;;;;;;;;;;17.35;100.00;98547.19;5076533;28;20309;-70
2022/10/12 12:29:50;;;;;;;;;;;;;;;17.42;100.00;98547.66;5075123;28;19996;-71
2022/10/12 12:32:17;;;;;;;;;;;;;;;17.51;100.00;98544.00;5077219;28;19936;-72
2022/10/12 12:34:50;;;;;;;;;;;;;;;17.44;100.00;98534.66;5078425;28;19956;-70
2022/10/12 12:37:21;;;;;;;;;;;;;;;17.41;100.00;98536.03;5077356;28;19947;-70
2022/10/12 12:39:51;;;;;;;;;;;;;;;17.30;100.00;98539.19;5075810;28;19925;-70
2022/10/12 12:42:21;;;;;;;;;;;;;;;17.54;100.00;98539.91;5077476;28;19951;-71